sensor_id;sensor_type;location;lat;lon;timestamp;pressure;altitude;pressure_sealevel;temperature;humidity
50226;BME280;36113;50.742;6.432;2022-12-18T00:00:54;143736.09;;;-5.30;100.00
50226;BME280;36113;50.742;6.432;2022-12-18T00:03:19;143799.19;;;-5.03;98.98
50226;BME280;36113;50.742;6.432;2022-12-18T00:05:51;143789.28;;;-5.07;97.34
50226;BME280;36113;50.742;6.432;2022-12-18T00:08:18;143817.72;;;-4.96;96.53
50226;BME280;36113;50.742;6.432;2022-12-18T00:10:45;143826.38;;;-4.92;95.82
50226;BME280;36113;50.742;6.432;2022-12-18T00:13:11;143827.66;;;-4.92;94.74
50226;BME280;36113;50.742;6.432;2022-12-18T00:15:38;143828.88;;;-4.91;93.71
50226;BME280;36113;50.742;6.432;2022-12-18T00:18:04;143837.53;;;-4.87;91.86
50226;BME280;36113;50.742;6.432;2022-12-18T00:20:37;143895.66;;;-4.63;86.42
50226;BME280;36113;50.742;6.432;2022-12-18T00:23:04;143889.47;;;-4.66;84.01
50226;BME280;36113;50.742;6.432;2022-12-18T00:25:29;143963.72;;;-4.35;80.59
50226;BME280;36113;50.742;6.432;2022-12-18T00:27:54;143993.44;;;-4.23;79.52
50226;BME280;36113;50.742;6.432;2022-12-18T00:30:20;143976.09;;;-4.30;77.72
50226;BME280;36113;50.742;6.432;2022-12-18T00:32:48;144007.06;;;-4.17;74.89
50226;BME280;36113;50.742;6.432;2022-12-18T00:35:13;144055.34;;;-3.97;76.04
50226;BME280;36113;50.742;6.432;2022-12-18T00:37:39;144062.72;;;-3.94;77.49
50226;BME280;36113;50.742;6.432;2022-12-18T00:40:04;144036.75;;;-4.05;76.77
50226;BME280;36113;50.742;6.432;2022-12-18T00:42:30;144016.94;;;-4.13;80.02
50226;BME280;36113;50.742;6.432;2022-12-18T00:45:14;143950.09;;;-4.41;84.77
50226;BME280;36113;50.742;6.432;2022-12-18T00:47:40;143816.50;;;-4.96;88.21
50226;BME280;36113;50.742;6.432;2022-12-18T00:50:06;143821.44;;;-4.94;91.33
50226;BME280;36113;50.742;6.432;2022-12-18T00:52:31;143789.28;;;-5.07;93.10
50226;BME280;36113;50.742;6.432;2022-12-18T00:54:56;143739.81;;;-5.28;94.94
50226;BME280;36113;50.742;6.432;2022-12-18T00:57:22;143741.06;;;-5.28;96.01
50226;BME280;36113;50.742;6.432;2022-12-18T00:59:47;143744.78;;;-5.26;96.17
50226;BME280;36113;50.742;6.432;2022-12-18T01:02:12;143768.25;;;-5.16;95.36
50226;BME280;36113;50.742;6.432;2022-12-18T01:04:38;143721.28;;;-5.36;95.50
50226;BME280;36113;50.742;6.432;2022-12-18T01:07:03;143765.81;;;-5.17;96.80
50226;BME280;36113;50.742;6.432;2022-12-18T01:09:28;143681.69;;;-5.52;98.25
50226;BME280;36113;50.742;6.432;2022-12-18T01:11:54;143691.63;;;-5.48;99.19
50226;BME280;36113;50.742;6.432;2022-12-18T01:14:19;143723.72;;;-5.35;99.45
50226;BME280;36113;50.742;6.432;2022-12-18T01:16:44;143700.25;;;-5.44;99.52
50226;BME280;36113;50.742;6.432;2022-12-18T01:19:10;143758.38;;;-5.20;99.10
50226;BME280;36113;50.742;6.432;2022-12-18T01:21:35;143774.47;;;-5.14;98.79
50226;BME280;36113;50.742;6.432;2022-12-18T01:24:00;143771.97;;;-5.15;98.64
50226;BME280;36113;50.742;6.432;2022-12-18T01:26:26;143691.63;;;-5.48;98.34
50226;BME280;36113;50.742;6.432;2022-12-18T01:28:55;143802.91;;;-5.02;98.25
50226;BME280;36113;50.742;6.432;2022-12-18T01:31:26;143765.81;;;-5.17;98.97
50226;BME280;36113;50.742;6.432;2022-12-18T01:33:52;143727.44;;;-5.33;100.00
50226;BME280;36113;50.742;6.432;2022-12-18T01:36:23;143717.56;;;-5.37;100.00
50226;BME280;36113;50.742;6.432;2022-12-18T01:38:50;143703.97;;;-5.43;100.00
50226;BME280;36113;50.742;6.432;2022-12-18T01:41:19;143694.06;;;-5.47;100.00
50226;BME280;36113;50.742;6.432;2022-12-18T01:43:51;143690.34;;;-5.49;100.00
50226;BME280;36113;50.742;6.432;2022-12-18T01:46:18;143665.63;;;-5.59;100.00
50226;BME280;36113;50.742;6.432;2022-12-18T01:48:47;143721.28;;;-5.36;100.00
50226;BME280;36113;50.742;6.432;2022-12-18T01:51:13;143635.97;;;-5.71;100.00
50226;BME280;36113;50.742;6.432;2022-12-18T01:53:41;143659.47;;;-5.61;100.00
50226;BME280;36113;50.742;6.432;2022-12-18T01:56:08;143634.75;;;-5.72;100.00
50226;BME280;36113;50.742;6.432;2022-12-18T01:59:02;143638.47;;;-5.70;100.00
50226;BME280;36113;50.742;6.432;2022-12-18T02:01:29;143642.16;;;-5.69;100.00
50226;BME280;36113;50.742;6.432;2022-12-18T02:03:55;143643.38;;;-5.68;100.00
50226;BME280;36113;50.742;6.432;2022-12-18T02:08:58;143668.13;;;-5.58;100.00
50226;BME280;36113;50.742;6.432;2022-12-18T02:11:49;143659.47;;;-5.61;100.00
50226;BME280;36113;50.742;6.432;2022-12-18T02:14:34;143670.59;;;-5.57;100.00
50226;BME280;36113;50.742;6.432;2022-12-18T02:17:27;143690.34;;;-5.49;100.00
50226;BME280;36113;50.742;6.432;2022-12-18T02:20:13;143682.97;;;-5.52;100.00
50226;BME280;36113;50.742;6.432;2022-12-18T02:26:12;143645.88;;;-5.67;100.00
50226;BME280;36113;50.742;6.432;2022-12-18T02:28:53;143614.97;;;-5.80;100.00
50226;BME280;36113;50.742;6.432;2022-12-18T02:31:28;143610.03;;;-5.82;100.00
50226;BME280;36113;50.742;6.432;2022-12-18T02:34:00;143643.38;;;-5.68;100.00
50226;BME280;36113;50.742;6.432;2022-12-18T02:36:27;143655.75;;;-5.63;100.00
50226;BME280;36113;50.742;6.432;2022-12-18T02:38:55;143602.59;;;-5.85;100.00
50226;BME280;36113;50.742;6.432;2022-12-18T02:41:25;143640.91;;;-5.69;100.00
50226;BME280;36113;50.742;6.432;2022-12-18T02:43:56;143652.03;;;-5.65;100.00
50226;BME280;36113;50.742;6.432;2022-12-18T02:46:32;143643.38;;;-5.68;100.00
50226;BME280;36113;50.742;6.432;2022-12-18T02:49:12;143632.25;;;-5.73;100.00
50226;BME280;36113;50.742;6.432;2022-12-18T02:51:52;143622.38;;;-5.77;100.00
50226;BME280;36113;50.742;6.432;2022-12-18T02:54:30;143585.31;;;-5.92;100.00
50226;BME280;36113;50.742;6.432;2022-12-18T02:57:09;143631.03;;;-5.73;100.00
50226;BME280;36113;50.742;6.432;2022-12-18T03:00:28;143631.03;;;-5.73;100.00
50226;BME280;36113;50.742;6.432;2022-12-18T03:02:47;143623.59;;;-5.76;100.00
50226;BME280;36113;50.742;6.432;2022-12-18T03:05:17;143700.25;;;-5.44;100.00
50226;BME280;36113;50.742;6.432;2022-12-18T03:07:52;143713.84;;;-5.39;100.00
50226;BME280;36113;50.742;6.432;2022-12-18T03:10:27;143661.91;;;-5.60;100.00
50226;BME280;36113;50.742;6.432;2022-12-18T03:13:02;143680.47;;;-5.53;100.00
50226;BME280;36113;50.742;6.432;2022-12-18T03:15:37;143656.97;;;-5.62;100.00
50226;BME280;36113;50.742;6.432;2022-12-18T03:18:11;143654.53;;;-5.63;100.00
50226;BME280;36113;50.742;6.432;2022-12-18T03:20:41;143661.91;;;-5.60;100.00
50226;BME280;36113;50.742;6.432;2022-12-18T03:23:11;143679.25;;;-5.53;100.00
50226;BME280;36113;50.742;6.432;2022-12-18T03:25:43;143678.00;;;-5.54;100.00
50226;BME280;36113;50.742;6.432;2022-12-18T03:28:15;143685.41;;;-5.51;100.00
50226;BME280;36113;50.742;6.432;2022-12-18T03:30:47;143678.00;;;-5.54;100.00
50226;BME280;36113;50.742;6.432;2022-12-18T03:33:26;143653.25;;;-5.64;100.00
50226;BME280;36113;50.742;6.432;2022-12-18T03:35:53;143632.25;;;-5.73;100.00
50226;BME280;36113;50.742;6.432;2022-12-18T03:38:19;143587.78;;;-5.91;100.00
50226;BME280;36113;50.742;6.432;2022-12-18T03:41:18;143507.50;;;-6.25;100.00
50226;BME280;36113;50.742;6.432;2022-12-18T03:51:48;143524.78;;;-6.17;100.00
50226;BME280;36113;50.742;6.432;2022-12-18T03:54:15;143547.06;;;-6.08;100.00
50226;BME280;36113;50.742;6.432;2022-12-18T03:56:48;143548.28;;;-6.08;100.00
50226;BME280;36113;50.742;6.432;2022-12-18T03:59:17;143561.84;;;-6.02;100.00
50226;BME280;36113;50.742;6.432;2022-12-18T04:01:49;143521.06;;;-6.19;100.00
50226;BME280;36113;50.742;6.432;2022-12-18T04:04:18;143528.50;;;-6.16;100.00
50226;BME280;36113;50.742;6.432;2022-12-18T04:06:44;143587.78;;;-5.91;100.00
50226;BME280;36113;50.742;6.432;2022-12-18T04:09:11;143566.78;;;-6.00;100.00
50226;BME280;36113;50.742;6.432;2022-12-18T04:11:36;143584.06;;;-5.93;100.00
50226;BME280;36113;50.742;6.432;2022-12-18T04:14:02;143606.31;;;-5.84;100.00
50226;BME280;36113;50.742;6.432;2022-12-18T04:16:27;143647.09;;;-5.67;100.00
50226;BME280;36113;50.742;6.432;2022-12-18T04:18:53;143664.41;;;-5.59;100.00
50226;BME280;36113;50.742;6.432;2022-12-18T04:21:19;143613.72;;;-5.80;100.00
50226;BME280;36113;50.742;6.432;2022-12-18T04:23:45;143659.47;;;-5.61;100.00
50226;BME280;36113;50.742;6.432;2022-12-18T04:26:10;143577.88;;;-5.95;100.00
50226;BME280;36113;50.742;6.432;2022-12-18T04:28:35;143533.44;;;-6.14;100.00
50226;BME280;36113;50.742;6.432;2022-12-18T04:31:01;143531.00;;;-6.15;100.00
50226;BME280;36113;50.742;6.432;2022-12-18T04:33:26;143550.75;;;-6.07;100.00
50226;BME280;36113;50.742;6.432;2022-12-18T04:35:51;143552.00;;;-6.06;100.00
50226;BME280;36113;50.742;6.432;2022-12-18T04:38:17;143540.84;;;-6.11;100.00
50226;BME280;36113;50.742;6.432;2022-12-18T04:40:45;143550.75;;;-6.07;100.00
50226;BME280;36113;50.742;6.432;2022-12-18T04:43:10;143570.50;;;-5.98;100.00
50226;BME280;36113;50.742;6.432;2022-12-18T04:45:36;143508.72;;;-6.24;100.00
50226;BME280;36113;50.742;6.432;2022-12-18T04:48:02;143555.69;;;-6.05;100.00
50226;BME280;36113;50.742;6.432;2022-12-18T04:50:28;143553.22;;;-6.06;100.00
50226;BME280;36113;50.742;6.432;2022-12-18T04:52:54;143561.84;;;-6.02;100.00
50226;BME280;36113;50.742;6.432;2022-12-18T04:55:19;143576.69;;;-5.96;100.00
50226;BME280;36113;50.742;6.432;2022-12-18T04:57:44;143595.16;;;-5.88;100.00
50226;BME280;36113;50.742;6.432;2022-12-18T05:00:10;143619.88;;;-5.78;100.00
50226;BME280;36113;50.742;6.432;2022-12-18T05:02:36;143632.25;;;-5.73;100.00
50226;BME280;36113;50.742;6.432;2022-12-18T05:05:01;143637.22;;;-5.71;100.00
50226;BME280;36113;50.742;6.432;2022-12-18T05:07:27;143628.53;;;-5.74;100.00
50226;BME280;36113;50.742;6.432;2022-12-18T05:09:52;143614.97;;;-5.80;100.00
50226;BME280;36113;50.742;6.432;2022-12-18T05:12:17;143598.88;;;-5.87;100.00
50226;BME280;36113;50.742;6.432;2022-12-18T05:14:43;143601.38;;;-5.86;100.00
50226;BME280;36113;50.742;6.432;2022-12-18T05:17:08;143595.16;;;-5.88;100.00
50226;BME280;36113;50.742;6.432;2022-12-18T05:19:33;143569.28;;;-5.99;100.00
50226;BME280;36113;50.742;6.432;2022-12-18T05:21:59;143585.31;;;-5.92;100.00
50226;BME280;36113;50.742;6.432;2022-12-18T05:24:24;143618.66;;;-5.78;100.00
50226;BME280;36113;50.742;6.432;2022-12-18T05:26:50;143623.59;;;-5.76;100.00
50226;BME280;36113;50.742;6.432;2022-12-18T05:29:15;143629.81;;;-5.74;100.00
50226;BME280;36113;50.742;6.432;2022-12-18T05:31:40;143589.00;;;-5.91;100.00
50226;BME280;36113;50.742;6.432;2022-12-18T05:34:06;143655.75;;;-5.63;100.00
50226;BME280;36113;50.742;6.432;2022-12-18T05:36:31;143664.41;;;-5.59;100.00
50226;BME280;36113;50.742;6.432;2022-12-18T05:38:56;143598.88;;;-5.87;100.00
50226;BME280;36113;50.742;6.432;2022-12-18T05:41:22;143649.53;;;-5.66;100.00
50226;BME280;36113;50.742;6.432;2022-12-18T05:43:47;143644.63;;;-5.68;100.00
50226;BME280;36113;50.742;6.432;2022-12-18T05:46:15;143563.13;;;-6.01;100.00
50226;BME280;36113;50.742;6.432;2022-12-18T05:48:41;143637.22;;;-5.71;100.00
50226;BME280;36113;50.742;6.432;2022-12-18T05:51:09;143622.38;;;-5.77;100.00
50226;BME280;36113;50.742;6.432;2022-12-18T05:53:36;143614.97;;;-5.80;100.00
50226;BME280;36113;50.742;6.432;2022-12-18T05:56:03;143591.47;;;-5.90;100.00
50226;BME280;36113;50.742;6.432;2022-12-18T05:58:29;143585.31;;;-5.92;100.00
50226;BME280;36113;50.742;6.432;2022-12-18T06:00:54;143579.09;;;-5.95;100.00
50226;BME280;36113;50.742;6.432;2022-12-18T06:03:23;143569.28;;;-5.99;100.00
50226;BME280;36113;50.742;6.432;2022-12-18T06:05:48;143632.25;;;-5.73;100.00
50226;BME280;36113;50.742;6.432;2022-12-18T06:08:14;143652.03;;;-5.65;100.00
50226;BME280;36113;50.742;6.432;2022-12-18T06:10:40;143660.69;;;-5.61;100.00
50226;BME280;36113;50.742;6.432;2022-12-18T06:13:06;143729.94;;;-5.32;100.00
50226;BME280;36113;50.742;6.432;2022-12-18T06:15:40;143755.88;;;-5.21;100.00
50226;BME280;36113;50.742;6.432;2022-12-18T06:18:05;143788.06;;;-5.08;100.00
50226;BME280;36113;50.742;6.432;2022-12-18T06:20:34;143775.69;;;-5.13;100.00
50226;BME280;36113;50.742;6.432;2022-12-18T06:23:01;143721.28;;;-5.36;100.00
50226;BME280;36113;50.742;6.432;2022-12-18T06:25:29;143703.97;;;-5.43;100.00
50226;BME280;36113;50.742;6.432;2022-12-18T06:27:54;143664.41;;;-5.59;100.00
50226;BME280;36113;50.742;6.432;2022-12-18T06:30:20;143676.75;;;-5.54;100.00
50226;BME280;36113;50.742;6.432;2022-12-18T06:32:45;143645.88;;;-5.67;100.00
50226;BME280;36113;50.742;6.432;2022-12-18T06:35:10;143527.28;;;-6.16;100.00
50226;BME280;36113;50.742;6.432;2022-12-18T06:37:36;143560.63;;;-6.03;100.00
50226;BME280;36113;50.742;6.432;2022-12-18T06:40:01;143589.00;;;-5.91;100.00
50226;BME280;36113;50.742;6.432;2022-12-18T06:42:28;143628.53;;;-5.74;100.00
50226;BME280;36113;50.742;6.432;2022-12-18T06:44:53;143611.25;;;-5.81;100.00
50226;BME280;36113;50.742;6.432;2022-12-18T06:47:18;143607.53;;;-5.83;100.00
50226;BME280;36113;50.742;6.432;2022-12-18T06:49:44;143544.56;;;-6.09;100.00
50226;BME280;36113;50.742;6.432;2022-12-18T06:52:09;143492.69;;;-6.31;100.00
50226;BME280;36113;50.742;6.432;2022-12-18T06:54:34;143493.91;;;-6.30;100.00
50226;BME280;36113;50.742;6.432;2022-12-18T06:56:59;143555.69;;;-6.05;100.00
50226;BME280;36113;50.742;6.432;2022-12-18T06:59:25;143469.22;;;-6.41;100.00
50226;BME280;36113;50.742;6.432;2022-12-18T07:01:50;143404.97;;;-6.67;100.00
50226;BME280;36113;50.742;6.432;2022-12-18T07:04:16;143414.88;;;-6.63;100.00
50226;BME280;36113;50.742;6.432;2022-12-18T07:06:41;143509.97;;;-6.24;100.00
50226;BME280;36113;50.742;6.432;2022-12-18T07:09:06;143533.44;;;-6.14;100.00
50226;BME280;36113;50.742;6.432;2022-12-18T07:11:33;143495.13;;;-6.30;100.00
50226;BME280;36113;50.742;6.432;2022-12-18T07:13:58;143433.38;;;-6.55;100.00
50226;BME280;36113;50.742;6.432;2022-12-18T07:16:24;143556.91;;;-6.04;100.00
50226;BME280;36113;50.742;6.432;2022-12-18T07:18:49;143532.22;;;-6.14;100.00
50226;BME280;36113;50.742;6.432;2022-12-18T07:21:18;143555.69;;;-6.05;100.00
50226;BME280;36113;50.742;6.432;2022-12-18T07:23:43;143535.91;;;-6.13;100.00
50226;BME280;36113;50.742;6.432;2022-12-18T07:26:12;143591.47;;;-5.90;100.00
50226;BME280;36113;50.742;6.432;2022-12-18T07:28:39;143605.09;;;-5.84;100.00
50226;BME280;36113;50.742;6.432;2022-12-18T07:31:12;143612.50;;;-5.81;100.00
50226;BME280;36113;50.742;6.432;2022-12-18T07:33:37;143554.44;;;-6.05;100.00
50226;BME280;36113;50.742;6.432;2022-12-18T07:36:05;143612.50;;;-5.81;100.00
50226;BME280;36113;50.742;6.432;2022-12-18T07:38:31;143634.75;;;-5.72;100.00
50226;BME280;36113;50.742;6.432;2022-12-18T07:41:05;143601.38;;;-5.86;100.00
50226;BME280;36113;50.742;6.432;2022-12-18T07:43:31;143575.47;;;-5.96;100.00
50226;BME280;36113;50.742;6.432;2022-12-18T07:45:56;143590.22;;;-5.90;100.00
50226;BME280;36113;50.742;6.432;2022-12-18T07:48:22;143612.50;;;-5.81;100.00
50226;BME280;36113;50.742;6.432;2022-12-18T07:50:47;143579.09;;;-5.95;100.00
50226;BME280;36113;50.742;6.432;2022-12-18T07:53:12;143559.41;;;-6.03;100.00
50226;BME280;36113;50.742;6.432;2022-12-18T07:55:40;143607.53;;;-5.83;100.00
50226;BME280;36113;50.742;6.432;2022-12-18T07:58:07;143628.53;;;-5.74;100.00
50226;BME280;36113;50.742;6.432;2022-12-18T08:00:33;143603.81;;;-5.85;100.00
50226;BME280;36113;50.742;6.432;2022-12-18T08:02:58;143637.22;;;-5.71;100.00
50226;BME280;36113;50.742;6.432;2022-12-18T08:05:24;143633.53;;;-5.72;100.00
50226;BME280;36113;50.742;6.432;2022-12-18T08:07:49;143674.28;;;-5.55;100.00
50226;BME280;36113;50.742;6.432;2022-12-18T08:10:15;143689.13;;;-5.49;100.00
50226;BME280;36113;50.742;6.432;2022-12-18T08:12:40;143723.72;;;-5.35;100.00
50226;BME280;36113;50.742;6.432;2022-12-18T08:15:06;143754.66;;;-5.22;100.00
50226;BME280;36113;50.742;6.432;2022-12-18T08:17:31;143784.34;;;-5.10;100.00
50226;BME280;36113;50.742;6.432;2022-12-18T08:19:57;143738.59;;;-5.29;100.00
50226;BME280;36113;50.742;6.432;2022-12-18T08:22:22;143789.28;;;-5.07;100.00
50226;BME280;36113;50.742;6.432;2022-12-18T08:24:47;143774.47;;;-5.14;100.00
50226;BME280;36113;50.742;6.432;2022-12-18T08:27:13;143758.38;;;-5.20;100.00
50226;BME280;36113;50.742;6.432;2022-12-18T08:29:38;143804.13;;;-5.01;100.00
50226;BME280;36113;50.742;6.432;2022-12-18T08:32:03;143762.09;;;-5.19;100.00
50226;BME280;36113;50.742;6.432;2022-12-18T08:34:29;143747.25;;;-5.25;100.00
50226;BME280;36113;50.742;6.432;2022-12-18T08:36:54;143720.06;;;-5.36;100.00
50226;BME280;36113;50.742;6.432;2022-12-18T08:39:19;143779.41;;;-5.12;100.00
50226;BME280;36113;50.742;6.432;2022-12-18T08:41:45;143806.59;;;-5.00;100.00
50226;BME280;36113;50.742;6.432;2022-12-18T08:44:30;143816.50;;;-4.96;100.00
50226;BME280;36113;50.742;6.432;2022-12-18T08:47:05;143814.00;;;-4.97;100.00
50226;BME280;36113;50.742;6.432;2022-12-18T08:49:30;143743.53;;;-5.27;100.00
50226;BME280;36113;50.742;6.432;2022-12-18T08:51:56;143815.28;;;-4.97;100.00
50226;BME280;36113;50.742;6.432;2022-12-18T08:54:25;143843.69;;;-4.85;100.00
50226;BME280;36113;50.742;6.432;2022-12-18T08:56:51;143887.00;;;-4.67;100.00
50226;BME280;36113;50.742;6.432;2022-12-18T08:59:17;143842.47;;;-4.85;100.00
50226;BME280;36113;50.742;6.432;2022-12-18T09:01:43;143960.00;;;-4.37;100.00
50226;BME280;36113;50.742;6.432;2022-12-18T09:04:11;143983.53;;;-4.27;100.00
50226;BME280;36113;50.742;6.432;2022-12-18T09:06:37;144023.16;;;-4.10;100.00
50226;BME280;36113;50.742;6.432;2022-12-18T09:09:03;144007.06;;;-4.17;100.00
50226;BME280;36113;50.742;6.432;2022-12-18T09:11:30;144055.34;;;-3.97;100.00
50226;BME280;36113;50.742;6.432;2022-12-18T09:13:57;144078.84;;;-3.87;100.00
50226;BME280;36113;50.742;6.432;2022-12-18T09:16:24;144073.88;;;-3.89;100.00
50226;BME280;36113;50.742;6.432;2022-12-18T09:18:49;144128.38;;;-3.67;100.00
50226;BME280;36113;50.742;6.432;2022-12-18T09:21:18;144046.63;;;-4.01;100.00
50226;BME280;36113;50.742;6.432;2022-12-18T09:23:44;144148.19;;;-3.59;100.00
50226;BME280;36113;50.742;6.432;2022-12-18T09:26:10;144168.00;;;-3.50;100.00
50226;BME280;36113;50.742;6.432;2022-12-18T09:28:35;144055.34;;;-3.97;100.00
50226;BME280;36113;50.742;6.432;2022-12-18T09:31:06;144161.78;;;-3.53;100.00
50226;BME280;36113;50.742;6.432;2022-12-18T09:33:33;144155.63;;;-3.55;100.00
50226;BME280;36113;50.742;6.432;2022-12-18T09:36:01;144226.22;;;-3.26;100.00
50226;BME280;36113;50.742;6.432;2022-12-18T09:38:27;144190.28;;;-3.41;100.00
50226;BME280;36113;50.742;6.432;2022-12-18T09:40:56;144190.28;;;-3.41;100.00
50226;BME280;36113;50.742;6.432;2022-12-18T09:43:30;144232.41;;;-3.24;100.00
50226;BME280;36113;50.742;6.432;2022-12-18T09:46:04;144274.50;;;-3.06;100.00
50226;BME280;36113;50.742;6.432;2022-12-18T09:48:35;144285.66;;;-3.02;100.00
50226;BME280;36113;50.742;6.432;2022-12-18T09:51:09;144303.00;;;-2.94;100.00
50226;BME280;36113;50.742;6.432;2022-12-18T09:53:37;144293.13;;;-2.98;100.00
50226;BME280;36113;50.742;6.432;2022-12-18T09:56:05;144321.63;;;-2.87;100.00
50226;BME280;36113;50.742;6.432;2022-12-18T09:58:35;144284.44;;;-3.02;100.00
50226;BME280;36113;50.742;6.432;2022-12-18T10:01:12;144340.19;;;-2.79;100.00
50226;BME280;36113;50.742;6.432;2022-12-18T10:03:39;144265.84;;;-3.10;100.00
50226;BME280;36113;50.742;6.432;2022-12-18T10:06:11;144355.06;;;-2.73;100.00
50226;BME280;36113;50.742;6.432;2022-12-18T10:11:31;144363.75;;;-2.69;100.00
50226;BME280;36113;50.742;6.432;2022-12-18T10:14:11;144408.38;;;-2.51;100.00
50226;BME280;36113;50.742;6.432;2022-12-18T10:25:25;144409.59;;;-2.50;100.00
50226;BME280;36113;50.742;6.432;2022-12-18T10:27:58;144438.13;;;-2.38;100.00
50226;BME280;36113;50.742;6.432;2022-12-18T10:30:25;144555.91;;;-1.90;100.00
50226;BME280;36113;50.742;6.432;2022-12-18T10:32:52;144460.41;;;-2.29;100.00
50226;BME280;36113;50.742;6.432;2022-12-18T10:35:21;144474.09;;;-2.23;100.00
50226;BME280;36113;50.742;6.432;2022-12-18T10:40:30;144608.00;;;-1.68;97.77
50226;BME280;36113;50.742;6.432;2022-12-18T10:43:12;144630.31;;;-1.59;97.06
50226;BME280;36113;50.742;6.432;2022-12-18T10:45:38;144678.72;;;-1.39;97.09
50226;BME280;36113;50.742;6.432;2022-12-18T10:48:04;144678.72;;;-1.39;95.67
50226;BME280;36113;50.742;6.432;2022-12-18T10:50:42;144697.31;;;-1.31;94.03
50226;BME280;36113;50.742;6.432;2022-12-18T10:53:18;144719.66;;;-1.22;94.26
50226;BME280;36113;50.742;6.432;2022-12-18T10:55:45;144732.09;;;-1.17;92.96
50226;BME280;36113;50.742;6.432;2022-12-18T11:06:12;144825.16;;;-0.78;84.76
50226;BME280;36113;50.742;6.432;2022-12-18T11:08:41;144738.25;;;-1.14;84.87
50226;BME280;36113;50.742;6.432;2022-12-18T11:11:20;144854.94;;;-0.66;84.72
50226;BME280;36113;50.742;6.432;2022-12-18T11:14:03;144849.97;;;-0.68;83.82
50226;BME280;36113;50.742;6.432;2022-12-18T11:16:34;144914.56;;;-0.41;78.95
50226;BME280;36113;50.742;6.432;2022-12-18T11:19:41;144936.91;;;-0.32;90.53
50226;BME280;36113;50.742;6.432;2022-12-18T11:22:26;144771.78;;;-1.00;93.03
50226;BME280;36113;50.742;6.432;2022-12-18T11:27:39;144740.75;;;-1.13;93.64
50226;BME280;36113;50.742;6.432;2022-12-18T11:30:09;144815.25;;;-0.82;91.41
50226;BME280;36113;50.742;6.432;2022-12-18T11:32:45;144895.91;;;-0.49;81.39
50226;BME280;36113;50.742;6.432;2022-12-18T11:35:20;144959.25;;;-0.23;73.02
50226;BME280;36113;50.742;6.432;2022-12-18T11:37:57;144987.81;;;-0.11;68.92
50226;BME280;36113;50.742;6.432;2022-12-18T11:40:34;144929.44;;;-0.35;76.28
50226;BME280;36113;50.742;6.432;2022-12-18T11:43:13;144902.16;;;-0.46;81.50
50226;BME280;36113;50.742;6.432;2022-12-18T11:46:03;144863.63;;;-0.62;82.92
50226;BME280;36113;50.742;6.432;2022-12-18T11:48:49;144939.41;;;-0.31;85.08
50226;BME280;36113;50.742;6.432;2022-12-18T11:51:37;144966.69;;;-0.20;84.76
50226;BME280;36113;50.742;6.432;2022-12-18T11:54:12;144987.81;;;-0.11;83.23
50226;BME280;36113;50.742;6.432;2022-12-18T11:56:52;145023.84;;;0.04;83.51
50226;BME280;36113;50.742;6.432;2022-12-18T11:59:44;145043.72;;;0.12;80.37
50226;BME280;36113;50.742;6.432;2022-12-18T12:08:22;145082.22;;;0.28;72.17
50226;BME280;36113;50.742;6.432;2022-12-18T12:13:59;145109.59;;;0.40;72.27
50226;BME280;36113;50.742;6.432;2022-12-18T12:16:51;145150.56;;;0.56;68.92
50226;BME280;36113;50.742;6.432;2022-12-18T12:19:34;145156.78;;;0.59;67.37
50226;BME280;36113;50.742;6.432;2022-12-18T12:27:45;145176.69;;;0.67;72.47
50226;BME280;36113;50.742;6.432;2022-12-18T12:38:21;145098.41;;;0.35;77.31
50226;BME280;36113;50.742;6.432;2022-12-18T12:40:57;145110.81;;;0.40;81.24
50226;BME280;36113;50.742;6.432;2022-12-18T12:43:28;145057.38;;;0.18;86.10
50226;BME280;36113;50.742;6.432;2022-12-18T12:46:05;144908.34;;;-0.44;89.47
50226;BME280;36113;50.742;6.432;2022-12-18T12:48:55;144764.31;;;-1.03;92.13
50226;BME280;36113;50.742;6.432;2022-12-18T12:51:22;144857.44;;;-0.65;95.92
50226;BME280;36113;50.742;6.432;2022-12-18T12:53:49;144827.66;;;-0.77;97.80
50226;BME280;36113;50.742;6.432;2022-12-18T12:56:17;144823.94;;;-0.79;99.33
50226;BME280;36113;50.742;6.432;2022-12-18T12:59:16;144874.81;;;-0.58;98.77
50226;BME280;36113;50.742;6.432;2022-12-18T13:02:16;144924.47;;;-0.37;98.67
50226;BME280;36113;50.742;6.432;2022-12-18T13:04:44;144975.38;;;-0.16;96.33
50226;BME280;36113;50.742;6.432;2022-12-18T13:07:32;144991.53;;;-0.09;95.13
50226;BME280;36113;50.742;6.432;2022-12-18T13:15:40;145012.66;;;-0.01;88.55
50226;BME280;36113;50.742;6.432;2022-12-18T13:20:35;144997.78;;;-0.07;88.59
50226;BME280;36113;50.742;6.432;2022-12-18T13:23:18;145046.19;;;0.13;90.44
50226;BME280;36113;50.742;6.432;2022-12-18T13:25:44;145005.19;;;-0.04;91.81
50226;BME280;36113;50.742;6.432;2022-12-18T13:28:14;145037.50;;;0.10;91.82
50226;BME280;36113;50.742;6.432;2022-12-18T13:30:46;145040.00;;;0.11;89.70
50226;BME280;36113;50.742;6.432;2022-12-18T13:45:50;145093.44;;;0.33;89.43
50226;BME280;36113;50.742;6.432;2022-12-18T13:48:24;145093.44;;;0.33;89.62
50226;BME280;36113;50.742;6.432;2022-12-18T13:51:03;145063.56;;;0.21;89.57
50226;BME280;36113;50.742;6.432;2022-12-18T13:53:36;145092.16;;;0.32;89.56
50226;BME280;36113;50.742;6.432;2022-12-18T13:56:03;144960.50;;;-0.22;89.80
50226;BME280;36113;50.742;6.432;2022-12-18T13:58:29;145042.44;;;0.12;89.18
50226;BME280;36113;50.742;6.432;2022-12-18T14:00:54;145083.47;;;0.29;89.75
50226;BME280;36113;50.742;6.432;2022-12-18T14:03:21;145089.69;;;0.31;90.58
50226;BME280;36113;50.742;6.432;2022-12-18T14:05:52;145094.66;;;0.33;90.29
50226;BME280;36113;50.742;6.432;2022-12-18T14:08:20;145033.75;;;0.08;90.88
50226;BME280;36113;50.742;6.432;2022-12-18T14:10:47;145042.44;;;0.12;91.49
50226;BME280;36113;50.742;6.432;2022-12-18T14:13:35;145081.00;;;0.28;92.48
50226;BME280;36113;50.742;6.432;2022-12-18T14:16:06;145069.81;;;0.23;93.43
50226;BME280;36113;50.742;6.432;2022-12-18T14:18:41;145092.16;;;0.32;92.86